Station History

Weather Underground - logo

Station Historical Data
Daily Summary for Nil La, TWC- Units:  English    Metric   Both
« Previous Day
Next Day »
Daily Weekly Monthly Yearly Custom
  High: Low: Average:
Temperature: 85.3 °F 67.1 °F 72.4 °F
Dew Point: 65.2 °F 57.0 °F 60 °F
Humidity: 77 % 42 % 66 %
Wind Speed: 4.6 mph 0.0 mph 0.9 mph
Wind Gust: 2.6 mph - -
Wind:- - SE
Pressure: 29.75 in 29.66 in -
Precipitation: 0.00 in    
Historical Graphs
 
 
Tabular Data for Nil La, TWC-
Time Temperature Dew Point Pressure Wind Wind Speed Wind Gust Humidity Rainfall Rate (Hourly)
00:04 75.1 °F 65.1 °F 29.66 in Calm     71 % 0.00 in
00:09 74.9 °F 64.9 °F 29.66 in Calm     71 % 0.00 in
00:14 74.8 °F 65.2 °F 29.66 in Calm     72 % 0.00 in
00:19 74.6 °F 64.2 °F 29.66 in Calm     70 % 0.00 in
00:24 74.5 °F 64.1 °F 29.66 in Calm     70 % 0.00 in
00:29 74.4 °F 64.0 °F 29.66 in Calm     70 % 0.00 in
00:34 74.3 °F 63.5 °F 29.66 in Calm     69 % 0.00 in
00:39 74.5 °F 63.2 °F 29.66 in Calm     68 % 0.00 in
00:44 74.4 °F 63.1 °F 29.66 in Calm     68 % 0.00 in
00:49 74.3 °F 63.5 °F 29.66 in SE 1.2 mph 0.1 mph 69 % 0.00 in
00:54 74.4 °F 63.1 °F 29.66 in Calm     68 % 0.00 in
00:59 74.0 °F 63.2 °F 29.66 in Calm     69 % 0.00 in
01:04 73.7 °F 63.7 °F 29.66 in Calm     71 % 0.00 in
01:09 73.3 °F 62.9 °F 29.66 in Calm     70 % 0.00 in
01:14 73.2 °F 63.2 °F 29.66 in SE 1.2 mph   71 % 0.00 in
01:19 72.9 °F 62.9 °F 29.67 in SE 1.2 mph   71 % 0.00 in
01:24 72.8 °F 62.8 °F 29.67 in Calm     71 % 0.00 in
01:29 72.6 °F 62.7 °F 29.67 in Calm     71 % 0.00 in
01:34 72.4 °F 62.9 °F 29.67 in Calm     72 % 0.00 in
01:39 72.2 °F 63.1 °F 29.67 in Calm     73 % 0.00 in
01:44 72.0 °F 62.9 °F 29.67 in Calm     73 % 0.00 in
01:49 72.1 °F 62.6 °F 29.67 in Calm     72 % 0.00 in
01:54 72.3 °F 62.4 °F 29.67 in Calm     71 % 0.00 in
01:59 72.3 °F 62.8 °F 29.67 in Calm     72 % 0.00 in
02:04 72.2 °F 62.3 °F 29.67 in Calm     71 % 0.00 in
02:09 72.1 °F 62.6 °F 29.67 in SE 1.2 mph   72 % 0.00 in
02:14 72.1 °F 62.6 °F 29.67 in Calm     72 % 0.00 in
02:19 72.0 °F 62.5 °F 29.67 in Calm     72 % 0.00 in
02:24 71.6 °F 62.1 °F 29.68 in Calm     72 % 0.00 in
02:29 71.2 °F 62.1 °F 29.67 in Calm     73 % 0.00 in
02:34 70.9 °F 61.8 °F 29.68 in Calm     73 % 0.00 in
02:39 70.7 °F 61.6 °F 29.67 in Calm     73 % 0.00 in
02:44 70.7 °F 61.6 °F 29.67 in Calm     73 % 0.00 in
02:49 70.7 °F 61.6 °F 29.67 in Calm     73 % 0.00 in
02:54 70.7 °F 61.6 °F 29.67 in SE 1.2 mph   73 % 0.00 in
02:59 70.6 °F 61.5 °F 29.67 in Calm     73 % 0.00 in
03:04 70.4 °F 61.7 °F 29.67 in Calm     74 % 0.00 in
03:09 70.1 °F 61.4 °F 29.67 in Calm     74 % 0.00 in
03:14 69.8 °F 61.5 °F 29.67 in Calm     75 % 0.00 in
03:19 69.6 °F 61.3 °F 29.67 in Calm     75 % 0.00 in
03:24 69.5 °F 60.8 °F 29.67 in Calm     74 % 0.00 in
03:29 69.4 °F 60.8 °F 29.67 in Calm     74 % 0.00 in
03:34 69.4 °F 60.8 °F 29.67 in Calm     74 % 0.00 in
03:39 69.4 °F 60.8 °F 29.67 in Calm     74 % 0.00 in
03:44 69.2 °F 60.6 °F 29.67 in Calm     74 % 0.00 in
03:49 69.1 °F 60.8 °F 29.67 in Calm     75 % 0.00 in
03:54 68.8 °F 60.9 °F 29.67 in Calm     76 % 0.00 in
03:59 68.3 °F 60.4 °F 29.68 in Calm     76 % 0.00 in
04:04 68.0 °F 60.5 °F 29.68 in Calm     77 % 0.00 in
04:09 67.7 °F 60.2 °F 29.68 in Calm     77 % 0.00 in
04:14 67.5 °F 60.0 °F 29.68 in Calm     77 % 0.00 in
04:19 67.4 °F 59.9 °F 29.68 in Calm     77 % 0.00 in
04:24 67.3 °F 59.5 °F 29.68 in Calm   0.1 mph 76 % 0.00 in
04:29 67.2 °F 59.0 °F 29.68 in SE 1.2 mph   75 % 0.00 in
04:34 67.2 °F 58.6 °F 29.68 in Calm     74 % 0.00 in
04:39 67.3 °F 58.0 °F 29.68 in SE 1.0 mph 0.3 mph 72 % 0.00 in
04:44 67.6 °F 57.9 °F 29.68 in Calm     71 % 0.00 in
04:49 67.8 °F 57.3 °F 29.68 in ESE 1.2 mph 0.1 mph 69 % 0.00 in
04:54 68.1 °F 57.1 °F 29.68 in Calm     68 % 0.00 in
04:59 68.2 °F 57.2 °F 29.68 in ESE 1.2 mph   68 % 0.00 in
05:04 68.1 °F 57.5 °F 29.68 in Calm     69 % 0.00 in
05:09 67.9 °F 57.4 °F 29.69 in ESE 1.2 mph   69 % 0.00 in
05:14 67.7 °F 57.6 °F 29.69 in ESE 1.2 mph   70 % 0.00 in
05:19 67.5 °F 57.8 °F 29.69 in Calm   0.1 mph 71 % 0.00 in
05:24 67.5 °F 57.8 °F 29.70 in ESE 1.2 mph   71 % 0.00 in
05:29 67.5 °F 57.8 °F 29.70 in Calm     71 % 0.00 in
05:34 67.3 °F 57.6 °F 29.70 in Calm     71 % 0.00 in
05:39 67.3 °F 57.2 °F 29.70 in ESE 1.2 mph   70 % 0.00 in
05:44 67.3 °F 57.6 °F 29.70 in Calm     71 % 0.00 in
05:49 67.3 °F 58.0 °F 29.70 in Calm     72 % 0.00 in
05:54 67.3 °F 58.0 °F 29.70 in Calm     72 % 0.00 in
05:59 67.1 °F 57.8 °F 29.71 in Calm     72 % 0.00 in
06:04 67.2 °F 57.5 °F 29.71 in ESE 1.2 mph 0.1 mph 71 % 0.00 in
06:09 67.3 °F 57.2 °F 29.71 in Calm     70 % 0.00 in
06:14 67.4 °F 57.3 °F 29.71 in Calm     70 % 0.00 in
06:19 67.4 °F 57.3 °F 29.71 in Calm     70 % 0.00 in
06:24 67.5 °F 57.4 °F 29.71 in Calm     70 % 0.00 in
06:29 67.7 °F 57.2 °F 29.71 in Calm     69 % 0.00 in
06:34 68.0 °F 57.4 °F 29.71 in Calm     69 % 0.00 in
06:39 68.4 °F 57.0 °F 29.71 in Calm   0.2 mph 67 % 0.00 in
06:44 69.5 °F 57.2 °F 29.72 in SE 1.2 mph 0.3 mph 65 % 0.00 in
06:49 70.7 °F 57.0 °F 29.72 in ESE 1.2 mph 0.1 mph 62 % 0.00 in
06:54 71.6 °F 57.4 °F 29.72 in SE 1.2 mph   61 % 0.00 in
06:59 72.3 °F 57.6 °F 29.72 in SSE 1.2 mph   60 % 0.00 in
07:04 72.7 °F 57.5 °F 29.73 in SE 1.2 mph 0.1 mph 59 % 0.00 in
07:09 73.2 °F 57.5 °F 29.73 in ESE 3.5 mph 1.1 mph 58 % 0.00 in
07:14 73.7 °F 58.0 °F 29.73 in SSE 1.2 mph   58 % 0.00 in
07:19 74.3 °F 58.1 °F 29.73 in ESE 2.3 mph 0.2 mph 57 % 0.00 in
07:24 74.6 °F 57.4 °F 29.73 in SE 2.3 mph 1.5 mph 55 % 0.00 in
07:29 74.8 °F 57.0 °F 29.73 in SSE 3.5 mph 1.4 mph 54 % 0.00 in
07:34 75.2 °F 57.4 °F 29.73 in SE 2.3 mph 0.2 mph 54 % 0.00 in
07:39 75.8 °F 58.0 °F 29.73 in East 3.5 mph 0.3 mph 54 % 0.00 in
07:44 76.5 °F 58.1 °F 29.73 in ESE 3.5 mph 1.5 mph 53 % 0.00 in
07:49 77.1 °F 58.6 °F 29.74 in SE 2.3 mph 0.9 mph 53 % 0.00 in
07:54 77.6 °F 58.0 °F 29.74 in SE 4.0 mph 2.2 mph 51 % 0.00 in
07:59 78.0 °F 58.4 °F 29.74 in ENE 4.6 mph 2.6 mph 51 % 0.00 in
08:04 78.2 °F 57.5 °F 29.74 in ESE 3.5 mph 1.9 mph 49 % 0.00 in
08:09 78.6 °F 58.4 °F 29.74 in SE 3.0 mph 1.0 mph 50 % 0.00 in
08:14 79.2 °F 58.4 °F 29.74 in SE 2.3 mph 1.4 mph 49 % 0.00 in
08:19 79.8 °F 58.9 °F 29.74 in Calm     49 % 0.00 in
08:24 80.6 °F 59.1 °F 29.74 in ESE 3.5 mph 1.4 mph 48 % 0.00 in
08:29 81.0 °F 59.5 °F 29.74 in SSE 3.5 mph 1.5 mph 48 % 0.00 in
08:34 81.5 °F 58.7 °F 29.74 in SE 1.2 mph 1.0 mph 46 % 0.00 in
08:39 82.1 °F 59.9 °F 29.74 in SE 3.5 mph 0.4 mph 47 % 0.00 in
08:44 82.3 °F 59.4 °F 29.74 in South 3.5 mph   46 % 0.00 in
08:49 82.7 °F 59.2 °F 29.74 in SSE 2.3 mph 2.3 mph 45 % 0.00 in
08:54 83.0 °F 58.2 °F 29.74 in SSE 4.6 mph 1.4 mph 43 % 0.00 in
08:59 83.2 °F 58.4 °F 29.74 in South 4.6 mph 1.3 mph 43 % 0.00 in
09:04 83.6 °F 59.4 °F 29.74 in SE 2.3 mph 0.4 mph 44 % 0.00 in
09:09 84.2 °F 58.6 °F 29.74 in SE 3.5 mph 1.5 mph 42 % 0.00 in
09:14 84.8 °F 60.5 °F 29.74 in SSW 3.5 mph 0.6 mph 44 % 0.00 in
09:19 85.3 °F 59.6 °F 29.75 in South 3.5 mph 2.0 mph 42 % 0.00 in
Park Place, Exeter, Tulare County, California, USA
Compliments of Weather Underground - 1.75 mb